Time;durP1;ratioP1;P1;durP2;ratioP2;P2;SDS_P1;SDS_P2;PMS_P1;PMS_P2;Temp;Humidity;BMP_temperature;BMP_pressure;BME280_temperature;BME280_humidity;BME280_pressure;Samples;Min_cycle;Max_cycle;Signal;HPM_P1;HPM_P2
2023/10/29 00:00:23;;;;;;;2.90;2.13;;;;;;;;;;2609715;54;20459;-76
2023/10/29 00:02:49;;;;;;;4.10;1.63;;;;;;;;;;2610674;54;20491;-75
2023/10/29 00:05:15;;;;;;;5.60;3.33;;;;;;;;;;2609148;54;20428;-75
2023/10/29 00:07:42;;;;;;;4.10;1.90;;;;;;;;;;2610177;46;20421;-75
2023/10/29 00:10:08;;;;;;;3.87;2.30;;;;;;;;;;2610448;54;20412;-75
2023/10/29 00:12:35;;;;;;;2.60;1.60;;;;;;;;;;2609269;54;20423;-75
2023/10/29 00:15:03;;;;;;;3.77;1.80;;;;;;;;;;2611155;54;20442;-74
2023/10/29 00:17:30;;;;;;;3.03;1.73;;;;;;;;;;2610107;46;20419;-74
2023/10/29 00:19:56;;;;;;;6.03;3.60;;;;;;;;;;2610463;54;20424;-76
2023/10/29 00:22:22;;;;;;;4.23;1.50;;;;;;;;;;2610934;39;20820;-75
2023/10/29 00:24:48;;;;;;;4.00;1.87;;;;;;;;;;2610505;54;20408;-75
2023/10/29 00:27:14;;;;;;;4.40;2.50;;;;;;;;;;2609586;54;20433;-76
2023/10/29 00:29:41;;;;;;;2.77;1.80;;;;;;;;;;2610099;54;20392;-75
2023/10/29 00:32:08;;;;;;;2.67;1.57;;;;;;;;;;2610557;54;20412;-75
2023/10/29 00:34:34;;;;;;;2.80;1.60;;;;;;;;;;2609789;39;20783;-74
2023/10/29 00:37:00;;;;;;;3.60;1.90;;;;;;;;;;2609778;54;20399;-74
2023/10/29 00:39:26;;;;;;;2.50;1.70;;;;;;;;;;2610086;39;20784;-74
2023/10/29 00:41:52;;;;;;;2.87;1.73;;;;;;;;;;2609642;39;20855;-74
2023/10/29 00:44:18;;;;;;;5.80;1.90;;;;;;;;;;2609656;54;20839;-73
2023/10/29 00:46:44;;;;;;;2.13;1.27;;;;;;;;;;2609854;54;20446;-73
2023/10/29 00:49:10;;;;;;;2.87;1.27;;;;;;;;;;2608925;54;22933;-74
2023/10/29 00:51:37;;;;;;;2.30;1.50;;;;;;;;;;2609036;39;20819;-74
2023/10/29 00:54:03;;;;;;;3.57;1.83;;;;;;;;;;2608105;54;21044;-74
2023/10/29 00:56:30;;;;;;;3.17;1.70;;;;;;;;;;2608835;47;20458;-75
2023/10/29 00:58:57;;;;;;;2.87;1.40;;;;;;;;;;2608759;47;20420;-74
2023/10/29 01:01:24;;;;;;;2.20;1.40;;;;;;;;;;2609947;46;20423;-74
2023/10/29 01:03:51;;;;;;;3.60;1.63;;;;;;;;;;2609501;54;20392;-76
2023/10/29 01:06:17;;;;;;;3.33;1.33;;;;;;;;;;2609251;54;20399;-74
2023/10/29 01:08:44;;;;;;;4.40;2.00;;;;;;;;;;2609171;54;20411;-74
2023/10/29 01:11:10;;;;;;;2.70;1.50;;;;;;;;;;2610253;54;20387;-74
2023/10/29 01:13:36;;;;;;;3.20;1.53;;;;;;;;;;2609379;47;20407;-74
2023/10/29 01:16:04;;;;;;;6.83;1.63;;;;;;;;;;2609782;47;20435;-74
2023/10/29 01:18:31;;;;;;;4.50;1.30;;;;;;;;;;2608858;54;20395;-74
2023/10/29 01:20:57;;;;;;;3.40;1.73;;;;;;;;;;2609981;54;20937;-73
2023/10/29 01:23:23;;;;;;;3.50;2.00;;;;;;;;;;2609862;54;20399;-74
2023/10/29 01:25:50;;;;;;;2.83;1.40;;;;;;;;;;2611938;54;22691;-76
2023/10/29 01:28:16;;;;;;;4.63;1.73;;;;;;;;;;2608635;54;20424;-75
2023/10/29 01:30:42;;;;;;;3.53;1.60;;;;;;;;;;2609952;54;20506;-76
2023/10/29 01:33:08;;;;;;;4.13;2.20;;;;;;;;;;2609449;54;20430;-76
2023/10/29 01:35:34;;;;;;;3.00;1.70;;;;;;;;;;2609315;54;20454;-75
2023/10/29 01:38:01;;;;;;;6.40;1.87;;;;;;;;;;2609256;54;20428;-75
2023/10/29 01:40:27;;;;;;;4.20;1.70;;;;;;;;;;2609858;54;20424;-75
2023/10/29 01:42:53;;;;;;;2.57;1.73;;;;;;;;;;2610484;54;20575;-75
2023/10/29 01:45:19;;;;;;;2.47;1.80;;;;;;;;;;2610943;54;20510;-75
2023/10/29 01:47:45;;;;;;;4.73;1.77;;;;;;;;;;2609644;54;20502;-76
2023/10/29 01:50:12;;;;;;;3.70;1.57;;;;;;;;;;2611118;54;20415;-75
2023/10/29 01:52:38;;;;;;;5.40;1.60;;;;;;;;;;2608884;54;20406;-76
2023/10/29 01:55:05;;;;;;;3.90;1.53;;;;;;;;;;2609360;54;20439;-75
2023/10/29 01:57:33;;;;;;;10.20;2.00;;;;;;;;;;2609551;54;20396;-76
2023/10/29 01:59:59;;;;;;;5.50;1.60;;;;;;;;;;2609744;54;20392;-75
2023/10/29 02:02:25;;;;;;;4.50;1.40;;;;;;;;;;2609759;54;20488;-75
2023/10/29 02:04:51;;;;;;;4.77;2.10;;;;;;;;;;2609620;54;20391;-75
2023/10/29 02:07:17;;;;;;;2.67;1.60;;;;;;;;;;2609161;54;20483;-75
2023/10/29 02:09:43;;;;;;;2.93;1.37;;;;;;;;;;2609071;47;20458;-76
2023/10/29 02:12:09;;;;;;;2.07;1.33;;;;;;;;;;2610939;54;20549;-76
2023/10/29 02:14:38;;;;;;;3.60;1.70;;;;;;;;;;2611384;54;20937;-76
2023/10/29 02:17:04;;;;;;;3.60;1.50;;;;;;;;;;2611132;54;20420;-76
2023/10/29 02:19:31;;;;;;;3.47;1.77;;;;;;;;;;2608702;54;20491;-75
2023/10/29 02:21:57;;;;;;;3.23;1.50;;;;;;;;;;2609362;47;20414;-76
2023/10/29 02:24:23;;;;;;;7.00;1.90;;;;;;;;;;2610226;54;20407;-77
2023/10/29 02:26:49;;;;;;;4.77;1.30;;;;;;;;;;2610259;39;21365;-76
2023/10/29 02:29:16;;;;;;;5.97;2.00;;;;;;;;;;2611248;54;20446;-76
2023/10/29 02:31:42;;;;;;;2.40;1.23;;;;;;;;;;2610211;54;20424;-76
2023/10/29 02:34:08;;;;;;;2.37;1.30;;;;;;;;;;2611647;54;20371;-76
2023/10/29 02:36:34;;;;;;;4.13;1.20;;;;;;;;;;2609565;54;20406;-75
2023/10/29 02:39:00;;;;;;;5.57;2.10;;;;;;;;;;2609805;54;20430;-76
2023/10/29 02:41:26;;;;;;;4.63;1.90;;;;;;;;;;2609533;54;20462;-75
2023/10/29 02:43:54;;;;;;;3.07;1.30;;;;;;;;;;2610380;54;20415;-76
2023/10/29 02:46:20;;;;;;;2.50;1.57;;;;;;;;;;2610498;54;20410;-76
2023/10/29 02:48:47;;;;;;;5.17;1.20;;;;;;;;;;2610014;54;20403;-75
2023/10/29 02:51:13;;;;;;;3.60;1.40;;;;;;;;;;2610298;54;20423;-76
2023/10/29 02:53:39;;;;;;;2.40;1.80;;;;;;;;;;2609143;54;20435;-76
2023/10/29 02:56:06;;;;;;;2.83;1.73;;;;;;;;;;2612416;39;20821;-77
2023/10/29 02:58:33;;;;;;;2.13;1.33;;;;;;;;;;2610949;39;20564;-77
2023/10/29 03:01:06;;;;;;;4.03;1.57;;;;;;;;;;2611748;54;21099;-77
2023/10/29 03:03:33;;;;;;;3.63;1.60;;;;;;;;;;2612014;54;20487;-77
2023/10/29 03:05:59;;;;;;;3.53;1.30;;;;;;;;;;2611599;54;20515;-76
2023/10/29 03:08:25;;;;;;;2.30;1.50;;;;;;;;;;2610789;47;20420;-77
2023/10/29 03:10:51;;;;;;;3.33;1.30;;;;;;;;;;2610817;54;20419;-77
2023/10/29 03:13:17;;;;;;;6.53;1.57;;;;;;;;;;2612511;54;21366;-76
2023/10/29 03:15:43;;;;;;;4.57;2.53;;;;;;;;;;2612264;39;20835;-77
2023/10/29 03:18:11;;;;;;;2.67;1.20;;;;;;;;;;2612276;54;20450;-76
2023/10/29 03:20:38;;;;;;;2.73;1.40;;;;;;;;;;2611417;50;20595;-76
2023/10/29 03:23:04;;;;;;;2.10;1.40;;;;;;;;;;2612939;54;20423;-77
2023/10/29 03:25:30;;;;;;;1.73;1.30;;;;;;;;;;2612235;54;20415;-76
2023/10/29 03:27:57;;;;;;;4.50;1.63;;;;;;;;;;2612023;54;20450;-76
2023/10/29 03:30:23;;;;;;;2.37;1.13;;;;;;;;;;2613008;54;20763;-76
2023/10/29 03:32:49;;;;;;;4.37;2.30;;;;;;;;;;2612117;47;20423;-76
2023/10/29 03:35:15;;;;;;;3.27;1.43;;;;;;;;;;2612543;54;20412;-76
2023/10/29 03:37:43;;;;;;;3.00;1.43;;;;;;;;;;2612133;54;20411;-76
2023/10/29 03:40:09;;;;;;;2.17;1.00;;;;;;;;;;2612932;54;20446;-76
2023/10/29 03:42:35;;;;;;;3.33;1.23;;;;;;;;;;2613352;54;20467;-76
2023/10/29 03:45:01;;;;;;;3.13;1.30;;;;;;;;;;2612656;54;20424;-73
2023/10/29 03:47:27;;;;;;;3.60;1.30;;;;;;;;;;2610203;54;20423;-74
2023/10/29 03:49:53;;;;;;;2.43;1.10;;;;;;;;;;2610391;39;21300;-74
2023/10/29 03:52:19;;;;;;;3.17;1.50;;;;;;;;;;2609768;54;20478;-73
2023/10/29 03:54:45;;;;;;;4.13;1.70;;;;;;;;;;2609936;47;20911;-73
2023/10/29 03:57:12;;;;;;;2.57;1.10;;;;;;;;;;2611368;54;20435;-73
2023/10/29 03:59:38;;;;;;;2.83;1.43;;;;;;;;;;2611828;54;20420;-73
2023/10/29 04:02:04;;;;;;;2.63;1.47;;;;;;;;;;2610542;54;20396;-73
2023/10/29 04:04:31;;;;;;;3.00;1.10;;;;;;;;;;2609405;54;20387;-74
2023/10/29 04:06:57;;;;;;;3.00;1.27;;;;;;;;;;2609732;47;20423;-75
2023/10/29 04:09:23;;;;;;;2.33;1.30;;;;;;;;;;2609241;54;20439;-76
2023/10/29 04:11:49;;;;;;;2.50;1.00;;;;;;;;;;2611651;54;20406;-75
2023/10/29 04:14:15;;;;;;;3.40;1.33;;;;;;;;;;2611441;54;22491;-76
2023/10/29 04:16:41;;;;;;;1.93;1.20;;;;;;;;;;2609255;54;20403;-75
2023/10/29 04:19:07;;;;;;;6.37;1.20;;;;;;;;;;2609374;54;20395;-76
2023/10/29 04:21:33;;;;;;;1.87;1.10;;;;;;;;;;2609942;54;20471;-76
2023/10/29 04:24:00;;;;;;;2.33;1.20;;;;;;;;;;2609617;54;20420;-76
2023/10/29 04:26:26;;;;;;;3.33;1.40;;;;;;;;;;2610247;54;21046;-75
2023/10/29 04:28:52;;;;;;;2.30;1.20;;;;;;;;;;2610083;54;21010;-75
2023/10/29 04:31:18;;;;;;;2.80;1.20;;;;;;;;;;2609219;54;20437;-75
2023/10/29 04:33:48;;;;;;;2.33;1.13;;;;;;;;;;2609766;54;20415;-76
2023/10/29 04:36:24;;;;;;;2.20;1.10;;;;;;;;;;2608348;39;20812;-76
2023/10/29 04:38:50;;;;;;;2.23;1.20;;;;;;;;;;2608517;51;20426;-77
2023/10/29 04:41:16;;;;;;;2.63;1.10;;;;;;;;;;2609596;54;20450;-77
2023/10/29 04:43:42;;;;;;;2.47;1.37;;;;;;;;;;2610476;54;20428;-76
2023/10/29 04:46:12;;;;;;;3.70;1.00;;;;;;;;;;2610750;39;20875;-76
2023/10/29 04:48:39;;;;;;;2.50;1.20;;;;;;;;;;2609774;54;20515;-76
2023/10/29 04:51:08;;;;;;;1.83;1.13;;;;;;;;;;2607656;54;20454;-76
2023/10/29 04:53:37;;;;;;;2.90;1.50;;;;;;;;;;2609841;31;20797;-76
2023/10/29 04:56:04;;;;;;;2.70;1.30;;;;;;;;;;2609944;54;20419;-75
2023/10/29 04:58:34;;;;;;;1.87;1.07;;;;;;;;;;2610027;54;20412;-75
2023/10/29 05:01:00;;;;;;;1.40;0.80;;;;;;;;;;2609332;54;20508;-75
2023/10/29 05:03:27;;;;;;;1.80;1.20;;;;;;;;;;2609603;54;20408;-75
2023/10/29 05:05:54;;;;;;;2.03;0.90;;;;;;;;;;2609022;54;20504;-75
2023/10/29 05:08:20;;;;;;;3.97;1.40;;;;;;;;;;2608343;54;21559;-75
2023/10/29 05:10:47;;;;;;;2.50;1.40;;;;;;;;;;2608690;47;20432;-76
2023/10/29 05:13:13;;;;;;;6.27;1.27;;;;;;;;;;2610709;54;20419;-75
2023/10/29 05:15:39;;;;;;;2.90;1.30;;;;;;;;;;2610183;54;21057;-75
2023/10/29 05:18:05;;;;;;;2.47;1.37;;;;;;;;;;2609765;46;20431;-76
2023/10/29 05:20:32;;;;;;;3.00;1.20;;;;;;;;;;2608910;54;20426;-74
2023/10/29 05:22:58;;;;;;;5.03;1.40;;;;;;;;;;2609932;54;20423;-75
2023/10/29 05:25:24;;;;;;;3.27;1.63;;;;;;;;;;2609150;54;20415;-76
2023/10/29 05:27:54;;;;;;;2.97;1.40;;;;;;;;;;2609147;54;20538;-75
2023/10/29 05:30:20;;;;;;;2.37;1.27;;;;;;;;;;2609966;54;21334;-76
2023/10/29 05:32:46;;;;;;;2.00;1.20;;;;;;;;;;2608272;47;20410;-76
2023/10/29 05:35:13;;;;;;;3.37;1.17;;;;;;;;;;2609785;54;20974;-77
2023/10/29 05:37:39;;;;;;;2.63;1.27;;;;;;;;;;2609124;54;20402;-76
2023/10/29 05:40:07;;;;;;;2.63;1.33;;;;;;;;;;2610003;54;20423;-75
2023/10/29 05:42:33;;;;;;;1.63;1.10;;;;;;;;;;2610252;54;20459;-75
2023/10/29 05:44:59;;;;;;;3.77;1.50;;;;;;;;;;2610183;54;20458;-77
2023/10/29 05:47:25;;;;;;;5.33;1.40;;;;;;;;;;2609978;54;20932;-76
2023/10/29 05:49:51;;;;;;;2.30;1.40;;;;;;;;;;2609691;39;21223;-77
2023/10/29 05:52:17;;;;;;;3.60;1.40;;;;;;;;;;2609547;54;20415;-77
2023/10/29 05:54:43;;;;;;;1.80;1.33;;;;;;;;;;2610451;54;20403;-77
2023/10/29 05:57:10;;;;;;;3.83;1.60;;;;;;;;;;2610701;39;20813;-77
2023/10/29 05:59:36;;;;;;;2.20;1.40;;;;;;;;;;2609963;54;20906;-76
2023/10/29 06:02:03;;;;;;;3.50;1.80;;;;;;;;;;2609762;54;20453;-76
2023/10/29 06:04:29;;;;;;;2.10;1.40;;;;;;;;;;2609055;47;20428;-75
2023/10/29 06:06:55;;;;;;;2.37;2.03;;;;;;;;;;2610132;54;20493;-76
2023/10/29 06:09:21;;;;;;;3.77;1.27;;;;;;;;;;2608595;54;21001;-76
2023/10/29 06:11:47;;;;;;;2.47;1.60;;;;;;;;;;2609306;54;21000;-76
2023/10/29 06:14:13;;;;;;;3.03;1.57;;;;;;;;;;2608850;54;20419;-76
2023/10/29 06:16:39;;;;;;;5.97;1.40;;;;;;;;;;2609309;54;20407;-76
2023/10/29 06:19:05;;;;;;;4.13;1.37;;;;;;;;;;2609044;47;20543;-76
2023/10/29 06:21:31;;;;;;;3.30;1.50;;;;;;;;;;2610634;54;20442;-76
2023/10/29 06:23:57;;;;;;;1.70;1.27;;;;;;;;;;2611811;54;20395;-76
2023/10/29 06:26:24;;;;;;;3.00;1.50;;;;;;;;;;2610830;47;21496;-77
2023/10/29 06:28:50;;;;;;;4.27;1.70;;;;;;;;;;2608882;47;20432;-77
2023/10/29 06:31:16;;;;;;;2.57;1.67;;;;;;;;;;2610233;39;20648;-76
2023/10/29 06:33:42;;;;;;;2.47;1.00;;;;;;;;;;2612300;54;20430;-80
2023/10/29 06:36:09;;;;;;;3.80;1.80;;;;;;;;;;2611711;47;20450;-76
2023/10/29 06:38:35;;;;;;;4.53;1.50;;;;;;;;;;2611001;54;20499;-76
2023/10/29 06:41:02;;;;;;;4.13;1.67;;;;;;;;;;2612572;54;20423;-76
2023/10/29 06:43:28;;;;;;;3.27;1.57;;;;;;;;;;2610743;54;20416;-76
2023/10/29 06:45:54;;;;;;;4.40;2.00;;;;;;;;;;2612758;54;20543;-75
2023/10/29 06:48:20;;;;;;;6.63;1.80;;;;;;;;;;2612248;54;20416;-76
2023/10/29 06:50:46;;;;;;;5.80;1.70;;;;;;;;;;2611488;47;20399;-76
2023/10/29 06:53:14;;;;;;;2.80;1.50;;;;;;;;;;2612515;54;20384;-77
2023/10/29 06:55:41;;;;;;;6.10;1.50;;;;;;;;;;2612711;54;20408;-77
2023/10/29 06:58:11;;;;;;;3.97;1.83;;;;;;;;;;2612518;54;20453;-77
2023/10/29 07:00:37;;;;;;;1.70;1.30;;;;;;;;;;2611629;54;20415;-76
2023/10/29 07:03:03;;;;;;;4.40;2.40;;;;;;;;;;2613185;54;20953;-76
2023/10/29 07:05:29;;;;;;;4.53;1.83;;;;;;;;;;2613825;31;20844;-77
2023/10/29 07:07:55;;;;;;;8.13;1.90;;;;;;;;;;2612711;50;20403;-76
2023/10/29 07:10:21;;;;;;;2.30;1.47;;;;;;;;;;2613549;31;20876;-77
2023/10/29 07:12:47;;;;;;;4.20;1.83;;;;;;;;;;2613653;54;20411;-76
2023/10/29 07:15:13;;;;;;;9.87;1.73;;;;;;;;;;2612995;54;20411;-76
2023/10/29 07:17:39;;;;;;;4.83;1.87;;;;;;;;;;2615560;54;20408;-77
2023/10/29 07:20:06;;;;;;;4.97;1.97;;;;;;;;;;2616074;47;20541;-77
2023/10/29 07:22:34;;;;;;;3.40;1.57;;;;;;;;;;2616084;47;20420;-76
2023/10/29 07:25:16;;;;;;;3.73;2.00;;;;;;;;;;2617358;39;20992;-76
2023/10/29 07:27:54;;;;;;;12.33;2.20;;;;;;;;;;2616151;46;20407;-76
2023/10/29 07:30:23;;;;;;;3.30;1.80;;;;;;;;;;2616838;54;20423;-76
2023/10/29 07:32:51;;;;;;;2.10;1.57;;;;;;;;;;2615933;54;20418;-76
2023/10/29 07:35:26;;;;;;;4.97;1.77;;;;;;;;;;2616729;54;20399;-77
2023/10/29 07:37:53;;;;;;;2.70;1.93;;;;;;;;;;2612766;39;20837;-76
2023/10/29 07:40:19;;;;;;;9.10;2.07;;;;;;;;;;2613133;46;20522;-76
2023/10/29 07:42:45;;;;;;;2.47;1.73;;;;;;;;;;2613766;54;20478;-77
2023/10/29 07:45:11;;;;;;;1.87;1.43;;;;;;;;;;2611835;47;20431;-76
2023/10/29 07:47:37;;;;;;;2.90;1.93;;;;;;;;;;2609693;54;20474;-77
2023/10/29 07:50:04;;;;;;;3.30;1.63;;;;;;;;;;2612337;54;20449;-77
2023/10/29 07:52:33;;;;;;;5.63;2.13;;;;;;;;;;2610338;47;20419;-77
2023/10/29 07:54:59;;;;;;;3.10;1.77;;;;;;;;;;2610331;54;20402;-76
2023/10/29 07:57:25;;;;;;;5.07;1.80;;;;;;;;;;2609706;54;20407;-76
2023/10/29 07:59:52;;;;;;;4.60;1.80;;;;;;;;;;2609476;54;20432;-76
2023/10/29 08:02:18;;;;;;;3.43;1.67;;;;;;;;;;2609379;47;20602;-77
2023/10/29 08:04:44;;;;;;;5.47;2.37;;;;;;;;;;2609808;54;20416;-76
2023/10/29 08:07:11;;;;;;;2.70;1.90;;;;;;;;;;2610529;54;20438;-76
2023/10/29 08:09:37;;;;;;;4.40;2.60;;;;;;;;;;2609715;54;20431;-76
2023/10/29 08:12:03;;;;;;;3.97;2.57;;;;;;;;;;2609590;54;20412;-76
2023/10/29 08:14:29;;;;;;;3.27;2.90;;;;;;;;;;2610423;47;20530;-76
2023/10/29 08:16:55;;;;;;;6.40;2.27;;;;;;;;;;2608753;47;20567;-76
2023/10/29 08:19:22;;;;;;;3.40;2.30;;;;;;;;;;2609420;54;20427;-77
2023/10/29 08:21:48;;;;;;;6.70;2.07;;;;;;;;;;2609268;47;20434;-76
2023/10/29 08:24:14;;;;;;;5.10;2.40;;;;;;;;;;2609847;54;20428;-77
2023/10/29 08:26:42;;;;;;;5.50;2.30;;;;;;;;;;2609896;54;21021;-76
2023/10/29 08:29:08;;;;;;;4.43;2.60;;;;;;;;;;2609738;54;20438;-76
2023/10/29 08:31:35;;;;;;;3.00;1.70;;;;;;;;;;2610433;54;20434;-76
2023/10/29 08:34:01;;;;;;;3.83;2.20;;;;;;;;;;2610068;54;21727;-77
2023/10/29 08:36:28;;;;;;;3.23;1.93;;;;;;;;;;2609162;47;20423;-77
2023/10/29 08:38:56;;;;;;;3.73;2.30;;;;;;;;;;2609943;54;20499;-76
2023/10/29 08:41:22;;;;;;;2.83;2.10;;;;;;;;;;2609690;54;20489;-76
2023/10/29 08:43:48;;;;;;;4.20;2.37;;;;;;;;;;2609975;54;20412;-77
2023/10/29 08:46:14;;;;;;;6.70;2.60;;;;;;;;;;2609520;47;20450;-75
2023/10/29 08:48:40;;;;;;;3.47;2.13;;;;;;;;;;2609039;47;20523;-74
2023/10/29 08:51:06;;;;;;;3.30;2.27;;;;;;;;;;2608937;54;20486;-75
2023/10/29 08:53:33;;;;;;;3.80;2.30;;;;;;;;;;2609442;54;20435;-74
2023/10/29 08:55:59;;;;;;;3.97;2.30;;;;;;;;;;2609372;54;20946;-75
2023/10/29 08:58:25;;;;;;;30.73;27.50;;;;;;;;;;2609601;39;20754;-74
2023/10/29 09:00:57;;;;;;;4.50;2.47;;;;;;;;;;2609200;54;21112;-75
2023/10/29 09:03:23;;;;;;;4.07;2.70;;;;;;;;;;2608748;54;20440;-74
2023/10/29 09:05:50;;;;;;;3.27;2.50;;;;;;;;;;2609717;54;20431;-74
2023/10/29 09:08:16;;;;;;;6.10;2.37;;;;;;;;;;2608726;54;20419;-75
2023/10/29 09:10:43;;;;;;;4.43;2.93;;;;;;;;;;2609988;54;20423;-74
2023/10/29 09:13:09;;;;;;;4.10;2.50;;;;;;;;;;2609770;54;20423;-74
2023/10/29 09:15:35;;;;;;;2.73;2.30;;;;;;;;;;2610027;47;20550;-75
2023/10/29 09:18:02;;;;;;;3.63;2.20;;;;;;;;;;2609845;54;20411;-74
2023/10/29 09:20:28;;;;;;;4.53;2.10;;;;;;;;;;2609400;39;20885;-75
2023/10/29 09:22:54;;;;;;;5.70;2.20;;;;;;;;;;2612925;54;20435;-75
2023/10/29 09:25:20;;;;;;;2.33;2.10;;;;;;;;;;2612358;47;20459;-75
2023/10/29 09:27:47;;;;;;;4.27;2.57;;;;;;;;;;2612032;54;20427;-75
2023/10/29 09:30:13;;;;;;;7.10;3.07;;;;;;;;;;2612494;54;20434;-74
2023/10/29 09:32:39;;;;;;;3.70;2.50;;;;;;;;;;2611689;54;20418;-75
2023/10/29 09:35:07;;;;;;;2.60;1.90;;;;;;;;;;2612170;54;20523;-76
2023/10/29 09:37:34;;;;;;;2.63;2.20;;;;;;;;;;2609280;54;21024;-75
2023/10/29 09:40:02;;;;;;;4.03;2.10;;;;;;;;;;2610157;39;21281;-75
2023/10/29 09:42:29;;;;;;;2.53;1.90;;;;;;;;;;2608645;54;20549;-75
2023/10/29 09:44:58;;;;;;;4.77;2.50;;;;;;;;;;2609781;54;20402;-75
2023/10/29 09:47:26;;;;;;;3.30;2.97;;;;;;;;;;2609895;54;21491;-74
2023/10/29 09:49:53;;;;;;;3.60;2.57;;;;;;;;;;2609724;47;20470;-75
2023/10/29 09:52:20;;;;;;;4.40;2.20;;;;;;;;;;2609329;47;20419;-76
2023/10/29 09:54:47;;;;;;;2.83;1.97;;;;;;;;;;2608995;54;20446;-75
2023/10/29 09:57:13;;;;;;;3.73;2.40;;;;;;;;;;2610190;39;20868;-75
2023/10/29 09:59:39;;;;;;;4.90;2.40;;;;;;;;;;2609729;54;20462;-74
2023/10/29 10:02:05;;;;;;;5.20;2.40;;;;;;;;;;2608955;54;20391;-74
2023/10/29 10:04:31;;;;;;;2.77;2.00;;;;;;;;;;2609072;47;20926;-74
2023/10/29 10:06:59;;;;;;;4.23;3.90;;;;;;;;;;2608506;52;20530;-74
2023/10/29 10:09:26;;;;;;;4.63;4.07;;;;;;;;;;2609887;54;20535;-75
2023/10/29 10:12:05;;;;;;;3.03;2.70;;;;;;;;;;2608791;54;20419;-75
2023/10/29 10:14:31;;;;;;;6.30;3.20;;;;;;;;;;2609383;54;22182;-75
2023/10/29 10:17:10;;;;;;;3.07;2.87;;;;;;;;;;2609905;54;20427;-73
2023/10/29 10:19:36;;;;;;;3.60;3.30;;;;;;;;;;2609019;47;20410;-75
2023/10/29 10:22:06;;;;;;;5.27;3.40;;;;;;;;;;2609489;39;21339;-74
2023/10/29 10:24:43;;;;;;;3.50;3.20;;;;;;;;;;2608536;47;20426;-74
2023/10/29 10:27:11;;;;;;;4.20;3.90;;;;;;;;;;2611467;39;20825;-75
2023/10/29 10:29:37;;;;;;;4.33;3.70;;;;;;;;;;2610726;54;20415;-75
2023/10/29 10:32:04;;;;;;;4.40;3.60;;;;;;;;;;2611747;54;20405;-75
2023/10/29 10:34:31;;;;;;;3.40;3.20;;;;;;;;;;2611742;47;20463;-76
2023/10/29 10:37:00;;;;;;;3.40;3.10;;;;;;;;;;2611131;51;20407;-74
2023/10/29 10:39:31;;;;;;;3.17;2.97;;;;;;;;;;2611939;54;20425;-74
2023/10/29 10:42:00;;;;;;;3.93;3.50;;;;;;;;;;2611522;39;21128;-74
2023/10/29 10:44:26;;;;;;;6.83;3.40;;;;;;;;;;2612826;54;21408;-74
2023/10/29 10:46:54;;;;;;;3.00;2.80;;;;;;;;;;2610236;54;20404;-74
2023/10/29 10:49:23;;;;;;;2.90;2.70;;;;;;;;;;2609362;47;20435;-75
2023/10/29 10:51:54;;;;;;;3.60;3.40;;;;;;;;;;2612295;54;20438;-75
2023/10/29 10:54:20;;;;;;;4.03;3.40;;;;;;;;;;2608332;47;20447;-75
2023/10/29 10:56:47;;;;;;;3.47;3.17;;;;;;;;;;2610213;54;20407;-75
2023/10/29 10:59:13;;;;;;;3.43;3.23;;;;;;;;;;2610259;54;20423;-74
2023/10/29 11:01:40;;;;;;;3.87;3.33;;;;;;;;;;2610140;54;20520;-74
2023/10/29 11:04:08;;;;;;;3.80;3.60;;;;;;;;;;2611520;54;20446;-75
2023/10/29 11:06:37;;;;;;;3.90;3.60;;;;;;;;;;2609931;54;20419;-76
2023/10/29 11:09:12;;;;;;;5.53;3.80;;;;;;;;;;2610672;39;21336;-78
2023/10/29 11:11:58;;;;;;;4.53;4.13;;;;;;;;;;2609713;47;20555;-76
2023/10/29 11:14:25;;;;;;;4.30;3.90;;;;;;;;;;2610276;47;20636;-77
2023/10/29 11:16:52;;;;;;;5.40;4.40;;;;;;;;;;2609182;54;20487;-75
2023/10/29 11:19:39;;;;;;;4.03;3.63;;;;;;;;;;2611305;39;20828;-74
2023/10/29 11:22:19;;;;;;;4.23;3.90;;;;;;;;;;2610816;54;20413;-75
2023/10/29 11:25:05;;;;;;;4.40;4.10;;;;;;;;;;2611788;54;20431;-74
2023/10/29 11:27:45;;;;;;;6.87;4.10;;;;;;;;;;2610630;54;20539;-73
2023/10/29 11:30:13;;;;;;;4.23;3.90;;;;;;;;;;2612650;54;20414;-73
2023/10/29 11:32:40;;;;;;;4.20;3.97;;;;;;;;;;2612525;39;20642;-74
2023/10/29 11:35:12;;;;;;;4.37;3.97;;;;;;;;;;2610376;54;20450;-74
2023/10/29 11:37:39;;;;;;;4.30;4.00;;;;;;;;;;2611730;46;20405;-74
2023/10/29 11:40:23;;;;;;;4.57;4.10;;;;;;;;;;2611232;54;20409;-74
2023/10/29 11:42:59;;;;;;;4.07;3.77;;;;;;;;;;2610448;50;20454;-74
2023/10/29 11:45:28;;;;;;;3.83;3.63;;;;;;;;;;2611439;54;20509;-74
2023/10/29 11:48:09;;;;;;;5.67;3.77;;;;;;;;;;2612960;54;20392;-75
2023/10/29 11:50:36;;;;;;;4.83;4.33;;;;;;;;;;2611711;54;20424;-74
2023/10/29 11:53:02;;;;;;;4.60;3.83;;;;;;;;;;2611343;54;20442;-73
2023/10/29 11:55:29;;;;;;;3.87;3.57;;;;;;;;;;2608688;54;20439;-74
2023/10/29 11:57:55;;;;;;;3.97;3.67;;;;;;;;;;2612120;54;20998;-75
2023/10/29 12:00:21;;;;;;;4.13;3.73;;;;;;;;;;2611825;54;20907;-74
2023/10/29 12:02:48;;;;;;;7.60;4.63;;;;;;;;;;2609622;54;20495;-75
2023/10/29 12:05:15;;;;;;;4.50;4.10;;;;;;;;;;2612021;54;20455;-75
2023/10/29 12:07:41;;;;;;;4.10;3.70;;;;;;;;;;2611672;54;20426;-74
2023/10/29 12:10:08;;;;;;;3.23;3.03;;;;;;;;;;2612472;54;20392;-73
2023/10/29 12:12:34;;;;;;;5.67;3.50;;;;;;;;;;2611120;54;20399;-75
2023/10/29 12:15:01;;;;;;;3.40;2.73;;;;;;;;;;2611441;47;20431;-74
2023/10/29 12:17:28;;;;;;;3.30;1.40;;;;;;;;;;2610416;54;20399;-74
2023/10/29 12:19:55;;;;;;;4.20;1.27;;;;;;;;;;2612673;54;20416;-74
2023/10/29 12:22:21;;;;;;;3.00;1.60;;;;;;;;;;2610634;47;20419;-74
2023/10/29 12:25:08;;;;;;;3.40;2.40;;;;;;;;;;2612299;39;20838;-74
2023/10/29 12:27:39;;;;;;;4.70;1.67;;;;;;;;;;2611896;54;20415;-75
2023/10/29 12:30:05;;;;;;;2.93;1.40;;;;;;;;;;2609140;54;20438;-75
2023/10/29 12:32:34;;;;;;;2.77;1.53;;;;;;;;;;2611405;54;20562;-75
2023/10/29 12:35:00;;;;;;;1.70;0.90;;;;;;;;;;2612636;54;20458;-75
2023/10/29 12:37:30;;;;;;;3.20;1.20;;;;;;;;;;2612084;39;21319;-75
2023/10/29 12:40:00;;;;;;;3.00;1.20;;;;;;;;;;2612794;54;21434;-75
2023/10/29 12:42:45;;;;;;;2.30;1.33;;;;;;;;;;2612809;54;20558;-73
2023/10/29 12:45:22;;;;;;;2.70;1.20;;;;;;;;;;2608991;54;20420;-74
2023/10/29 12:47:50;;;;;;;3.90;1.33;;;;;;;;;;2610823;54;20800;-75
2023/10/29 12:50:16;;;;;;;3.40;1.70;;;;;;;;;;2612750;54;21011;-74
2023/10/29 12:52:45;;;;;;;5.40;1.43;;;;;;;;;;2612230;54;21201;-75
2023/10/29 12:55:12;;;;;;;7.47;1.57;;;;;;;;;;2611400;39;20892;-78
2023/10/29 12:57:38;;;;;;;4.60;1.30;;;;;;;;;;2612120;54;20519;-75
2023/10/29 13:00:05;;;;;;;3.57;1.40;;;;;;;;;;2611639;54;20419;-74
2023/10/29 13:02:31;;;;;;;4.23;1.47;;;;;;;;;;2610903;39;20823;-76
2023/10/29 13:04:57;;;;;;;2.60;1.20;;;;;;;;;;2613197;54;20392;-74
2023/10/29 13:07:23;;;;;;;2.93;1.30;;;;;;;;;;2611541;54;21314;-74
2023/10/29 13:09:52;;;;;;;4.93;1.80;;;;;;;;;;2611368;54;20403;-74
2023/10/29 13:12:18;;;;;;;3.50;1.40;;;;;;;;;;2612379;54;20445;-74
2023/10/29 13:14:46;;;;;;;4.03;1.10;;;;;;;;;;2611580;46;20458;-74
2023/10/29 13:17:14;;;;;;;4.90;1.53;;;;;;;;;;2612135;47;20997;-74
2023/10/29 13:19:40;;;;;;;2.87;1.50;;;;;;;;;;2612263;54;20437;-74
2023/10/29 13:22:06;;;;;;;4.80;1.50;;;;;;;;;;2612487;39;20806;-74
2023/10/29 13:24:32;;;;;;;4.33;1.40;;;;;;;;;;2611826;54;21425;-75
2023/10/29 13:26:59;;;;;;;3.80;1.60;;;;;;;;;;2609517;47;20431;-75
2023/10/29 13:29:25;;;;;;;3.97;1.57;;;;;;;;;;2610271;47;20460;-73
2023/10/29 13:31:51;;;;;;;7.00;2.90;;;;;;;;;;2609266;54;20440;-74
2023/10/29 13:34:17;;;;;;;4.40;1.40;;;;;;;;;;2610000;39;20974;-75
2023/10/29 13:36:43;;;;;;;4.13;1.40;;;;;;;;;;2610492;54;20432;-74
2023/10/29 13:39:10;;;;;;;5.70;1.80;;;;;;;;;;2611056;54;20474;-74
2023/10/29 13:41:38;;;;;;;4.50;1.53;;;;;;;;;;2611645;54;20529;-74
2023/10/29 13:44:04;;;;;;;5.03;1.93;;;;;;;;;;2611805;39;20539;-74
2023/10/29 13:46:30;;;;;;;25.00;11.17;;;;;;;;;;2612824;39;20791;-74
2023/10/29 13:48:57;;;;;;;4.00;2.40;;;;;;;;;;2611738;47;20427;-74
2023/10/29 13:51:24;;;;;;;10.57;5.30;;;;;;;;;;2612089;31;21020;-74
2023/10/29 13:53:50;;;;;;;3.43;1.73;;;;;;;;;;2610674;54;20434;-75
2023/10/29 13:56:17;;;;;;;8.80;5.00;;;;;;;;;;2611690;46;20485;-74
2023/10/29 13:58:43;;;;;;;6.70;2.07;;;;;;;;;;2612149;54;20407;-75
2023/10/29 14:01:22;;;;;;;4.27;1.90;;;;;;;;;;2610520;54;21131;-75
2023/10/29 14:03:49;;;;;;;2.83;1.80;;;;;;;;;;2612222;54;20403;-75
2023/10/29 14:06:15;;;;;;;9.83;3.13;;;;;;;;;;2612324;54;20396;-74
2023/10/29 14:08:41;;;;;;;4.87;1.60;;;;;;;;;;2613274;54;20442;-74
2023/10/29 14:11:08;;;;;;;5.00;1.73;;;;;;;;;;2613471;54;21004;-74
2023/10/29 14:13:34;;;;;;;2.63;1.90;;;;;;;;;;2611926;54;20408;-74
2023/10/29 14:16:00;;;;;;;5.30;1.53;;;;;;;;;;2609056;54;20407;-74
2023/10/29 14:18:27;;;;;;;3.27;2.03;;;;;;;;;;2611608;54;20453;-74
2023/10/29 14:20:53;;;;;;;3.97;1.43;;;;;;;;;;2610620;54;20399;-73
2023/10/29 14:23:19;;;;;;;2.20;1.40;;;;;;;;;;2612637;54;20446;-74
2023/10/29 14:25:47;;;;;;;2.60;1.33;;;;;;;;;;2612339;54;20456;-74
2023/10/29 14:28:13;;;;;;;2.30;1.33;;;;;;;;;;2613310;54;20425;-76
2023/10/29 14:30:39;;;;;;;2.50;1.30;;;;;;;;;;2611199;47;20412;-74
2023/10/29 14:33:05;;;;;;;2.60;1.27;;;;;;;;;;2612580;54;20426;-74
2023/10/29 14:35:31;;;;;;;2.13;1.20;;;;;;;;;;2611396;54;20469;-75
2023/10/29 14:37:57;;;;;;;2.03;1.10;;;;;;;;;;2609597;54;20434;-73
2023/10/29 14:40:23;;;;;;;4.40;1.60;;;;;;;;;;2610658;54;20964;-73
2023/10/29 14:42:50;;;;;;;2.60;1.20;;;;;;;;;;2612183;54;20443;-74